BHM weather

Birmingham-Shuttlesworth International Airport
Birmingham, Alabama, United States

Public forecast

Using degrees Fahrenheit for public forecast. Weather courtesy of forecast.io.

Current aviation weather report (METAR) for Birmingham-Shuttlesworth International Airport

Retrieved 2019/10/18 06:53 UTC (31 minutes ago):

KBHM 180653Z 00000KT 10SM CLR 09/06 A3002 RMK AO2 SLP162 T00890056

Aviation forecast (TAF) for Birmingham-Shuttlesworth International Airport

Retrieved 2019/10/18 06:22 UTC (1 hour ago):

TAF KBHM 180520Z 1806/1906 00000KT P6SM SKC FM181600 09008KT P6SM SCT250 FM190100 08003KT P6SM SCT250